Time;durP1;ratioP1;P1;durP2;ratioP2;P2;SDS_P1;SDS_P2;PMS_P1;PMS_P2;Temp;Humidity;BMP_temperature;BMP_pressure;BME280_temperature;BME280_humidity;BME280_pressure;Samples;Min_cycle;Max_cycle;Signal;HPM_P1;HPM_P2
2021/12/23 00:00:39;;;;;;;;;;;;;;;-7.11;70.18;96157.78;5035837;28;1906;-46
2021/12/23 00:03:05;;;;;;;;;;;;;;;-6.93;69.96;96153.94;5053610;28;1038;-46
2021/12/23 00:05:31;;;;;;;;;;;;;;;-7.10;69.58;96156.03;5053119;28;1042;-46
2021/12/23 00:07:58;;;;;;;;;;;;;;;-7.04;70.01;96148.09;5053587;28;978;-46
2021/12/23 00:10:24;;;;;;;;;;;;;;;-6.96;70.00;96146.22;5053048;28;1899;-46
2021/12/23 00:12:50;;;;;;;;;;;;;;;-6.94;69.87;96156.59;5035237;28;1155;-46
2021/12/23 00:15:27;;;;;;;;;;;;;;;-7.07;69.18;96155.97;5033039;28;1132;-46
2021/12/23 00:25:35;;;;;;;;;;;;;;;-7.42;70.27;96157.47;5032919;28;1048;-46
2021/12/23 00:28:01;;;;;;;;;;;;;;;-7.56;69.92;96155.16;5033119;28;1294;-46
2021/12/23 00:30:27;;;;;;;;;;;;;;;-7.71;69.55;96156.25;5033049;28;1155;-46
2021/12/23 00:32:56;;;;;;;;;;;;;;;-7.73;70.42;96157.19;5033071;28;1297;-46
2021/12/23 00:35:22;;;;;;;;;;;;;;;-7.87;70.74;96153.09;5032925;28;1077;-46
2021/12/23 00:37:50;;;;;;;;;;;;;;;-7.67;70.88;96155.31;5033122;28;966;-45
2021/12/23 00:40:17;;;;;;;;;;;;;;;-7.50;70.42;96152.44;5032723;28;1934;-46
2021/12/23 00:42:43;;;;;;;;;;;;;;;-7.61;70.81;96158.72;5033353;28;1002;-46
2021/12/23 00:45:09;;;;;;;;;;;;;;;-7.52;70.83;96168.94;5033096;28;1042;-46
2021/12/23 00:47:35;;;;;;;;;;;;;;;-7.51;70.61;96165.44;5033282;28;1010;-46
2021/12/23 00:50:01;;;;;;;;;;;;;;;-7.68;69.85;96164.00;5032897;28;1146;-46
2021/12/23 00:52:32;;;;;;;;;;;;;;;-7.68;71.03;96164.00;5032931;28;1217;-45
2021/12/23 00:54:58;;;;;;;;;;;;;;;-7.62;70.53;96167.41;5032591;28;1061;-46
2021/12/23 00:57:29;;;;;;;;;;;;;;;-7.55;69.74;96168.97;5032892;28;1042;-46
2021/12/23 00:59:56;;;;;;;;;;;;;;;-7.53;70.35;96160.28;5032672;28;1979;-45
2021/12/23 01:02:30;;;;;;;;;;;;;;;-7.47;70.74;96165.38;5033181;28;977;-45
2021/12/23 01:04:56;;;;;;;;;;;;;;;-7.38;70.24;96160.88;5033323;28;1013;-45
2021/12/23 01:07:22;;;;;;;;;;;;;;;-7.59;70.42;96165.56;5036702;28;1065;-46
2021/12/23 01:09:48;;;;;;;;;;;;;;;-7.63;69.76;96165.66;5036577;28;1013;-46
2021/12/23 01:12:17;;;;;;;;;;;;;;;-7.47;69.87;96161.94;5049982;28;1179;-46
2021/12/23 01:14:55;;;;;;;;;;;;;;;-7.52;70.23;96159.41;5056420;28;1056;-46
2021/12/23 01:19:53;;;;;;;;;;;;;;;-7.39;69.96;96160.03;5055780;28;1914;-45
2021/12/23 01:22:20;;;;;;;;;;;;;;;-7.57;68.79;96158.66;5056612;28;1029;-46
2021/12/23 01:24:47;;;;;;;;;;;;;;;-7.78;69.73;96159.84;5056059;28;1086;-46
2021/12/23 01:27:13;;;;;;;;;;;;;;;-7.91;69.58;96147.94;5056538;28;1046;-46
2021/12/23 01:29:39;;;;;;;;;;;;;;;-8.12;70.07;96142.25;5056167;28;1045;-46
2021/12/23 01:32:06;;;;;;;;;;;;;;;-8.18;71.44;96154.47;5055791;28;1094;-47
2021/12/23 01:34:33;;;;;;;;;;;;;;;-8.02;70.89;96145.56;5056336;28;986;-46
2021/12/23 01:37:00;;;;;;;;;;;;;;;-7.93;71.22;96147.13;5056110;28;1029;-46
2021/12/23 01:39:26;;;;;;;;;;;;;;;-8.08;70.04;96143.91;5056118;28;1050;-46
2021/12/23 01:41:52;;;;;;;;;;;;;;;-8.25;70.78;96141.59;5055731;28;1906;-45
2021/12/23 01:44:19;;;;;;;;;;;;;;;-8.29;70.89;96144.22;5056010;28;965;-46
2021/12/23 01:46:45;;;;;;;;;;;;;;;-8.27;71.05;96145.06;5055720;28;1045;-46
2021/12/23 01:49:11;;;;;;;;;;;;;;;-8.34;70.71;96143.47;5055816;28;1022;-46
2021/12/23 01:51:38;;;;;;;;;;;;;;;-8.40;70.73;96146.13;5055928;28;1041;-46
2021/12/23 01:54:04;;;;;;;;;;;;;;;-8.37;70.95;96144.34;5055818;28;1094;-46
2021/12/23 01:56:30;;;;;;;;;;;;;;;-8.34;70.93;96146.06;5055786;28;978;-46
2021/12/23 01:58:56;;;;;;;;;;;;;;;-8.29;70.92;96139.03;5055893;28;987;-45
2021/12/23 02:01:23;;;;;;;;;;;;;;;-8.32;71.32;96139.13;5055674;28;2019;-45
2021/12/23 02:03:49;;;;;;;;;;;;;;;-8.47;70.88;96138.47;5055748;28;977;-45
2021/12/23 02:06:15;;;;;;;;;;;;;;;-8.43;71.43;96138.44;5055652;28;986;-46
2021/12/23 02:08:42;;;;;;;;;;;;;;;-8.37;70.90;96131.38;5055830;28;1040;-46
2021/12/23 02:11:10;;;;;;;;;;;;;;;-8.42;70.90;96142.75;5047142;28;1162;-46
2021/12/23 02:13:37;;;;;;;;;;;;;;;-8.40;71.09;96133.16;5015796;28;1037;-46
2021/12/23 02:16:04;;;;;;;;;;;;;;;-8.23;71.35;96128.59;5015147;28;1130;-45
2021/12/23 02:18:30;;;;;;;;;;;;;;;-8.10;70.76;96129.22;5015565;28;1042;-46
2021/12/23 02:20:57;;;;;;;;;;;;;;;-7.96;70.70;96132.47;5015508;28;1915;-46
2021/12/23 02:23:23;;;;;;;;;;;;;;;-7.97;69.18;96127.28;5015777;28;1049;-46
2021/12/23 02:25:49;;;;;;;;;;;;;;;-8.28;69.56;96120.88;5015415;28;1013;-46
2021/12/23 02:28:16;;;;;;;;;;;;;;;-8.59;70.64;96125.72;5015701;28;1033;-46
2021/12/23 02:30:43;;;;;;;;;;;;;;;-8.42;71.28;96124.59;5015158;28;1290;-46
2021/12/23 02:33:09;;;;;;;;;;;;;;;-8.30;70.93;96126.97;5015186;28;1093;-46
2021/12/23 02:35:35;;;;;;;;;;;;;;;-8.21;70.95;96123.34;5015256;28;1989;-46
2021/12/23 02:38:01;;;;;;;;;;;;;;;-8.03;70.83;96130.00;5015299;28;974;-45
2021/12/23 02:40:29;;;;;;;;;;;;;;;-7.96;70.97;96122.09;5015076;28;2001;-46
2021/12/23 02:42:56;;;;;;;;;;;;;;;-7.97;69.82;96124.69;5015241;28;1049;-46
2021/12/23 02:45:23;;;;;;;;;;;;;;;-8.05;69.58;96123.09;5015355;28;1043;-45
2021/12/23 02:47:49;;;;;;;;;;;;;;;-8.20;69.85;96130.28;5014757;28;998;-46
2021/12/23 02:50:15;;;;;;;;;;;;;;;-8.28;69.56;96123.47;5015302;28;1044;-46
2021/12/23 02:52:41;;;;;;;;;;;;;;;-8.62;70.39;96127.47;5014983;28;997;-46
2021/12/23 02:55:08;;;;;;;;;;;;;;;-8.72;71.16;96129.34;5015045;28;1062;-46
2021/12/23 02:57:34;;;;;;;;;;;;;;;-8.72;71.32;96130.22;5014609;28;1900;-46
2021/12/23 03:00:00;;;;;;;;;;;;;;;-8.55;71.36;96129.13;5015162;28;1993;-46
2021/12/23 03:02:26;;;;;;;;;;;;;;;-8.45;70.54;96134.13;5014839;28;1095;-46
2021/12/23 03:04:52;;;;;;;;;;;;;;;-8.52;70.82;96136.84;5014944;28;1049;-46
2021/12/23 03:07:18;;;;;;;;;;;;;;;-8.38;71.21;96127.09;5014806;28;1033;-46
2021/12/23 03:09:44;;;;;;;;;;;;;;;-8.27;70.72;96130.38;5014457;28;1038;-46
2021/12/23 03:12:10;;;;;;;;;;;;;;;-8.34;69.80;96125.31;5039764;28;1234;-46
2021/12/23 03:14:37;;;;;;;;;;;;;;;-8.69;70.18;96116.31;5054231;28;1030;-46
2021/12/23 03:17:03;;;;;;;;;;;;;;;-8.59;71.10;96122.22;5054120;28;1042;-46
2021/12/23 03:19:29;;;;;;;;;;;;;;;-8.48;69.80;96115.16;5054085;28;1110;-45
2021/12/23 03:21:55;;;;;;;;;;;;;;;-8.67;70.07;96112.84;5053968;28;1914;-46
2021/12/23 03:24:21;;;;;;;;;;;;;;;-8.80;70.87;96111.31;5053968;28;1109;-46
2021/12/23 03:26:47;;;;;;;;;;;;;;;-8.88;70.99;96113.13;5053754;28;1070;-46
2021/12/23 03:29:14;;;;;;;;;;;;;;;-8.60;71.33;96116.19;5053259;28;1231;-46
2021/12/23 03:31:40;;;;;;;;;;;;;;;-8.42;71.42;96106.41;5053544;28;1105;-46
2021/12/23 03:34:06;;;;;;;;;;;;;;;-8.32;71.23;96115.75;5053762;28;981;-46
2021/12/23 03:36:32;;;;;;;;;;;;;;;-8.29;69.81;96118.28;5054008;28;985;-46
2021/12/23 03:38:58;;;;;;;;;;;;;;;-8.50;69.54;96128.16;5053672;28;1058;-46
2021/12/23 03:41:24;;;;;;;;;;;;;;;-8.74;69.90;96126.78;5053771;28;1914;-46
2021/12/23 03:43:50;;;;;;;;;;;;;;;-8.63;70.08;96126.63;5053756;28;1013;-46
2021/12/23 03:46:16;;;;;;;;;;;;;;;-8.42;70.46;96127.19;5036229;28;1045;-46
2021/12/23 03:48:42;;;;;;;;;;;;;;;-8.37;71.29;96128.78;5053445;28;1023;-46
2021/12/23 03:51:09;;;;;;;;;;;;;;;-8.28;70.12;96130.41;5053765;28;1289;-46
2021/12/23 03:53:35;;;;;;;;;;;;;;;-8.45;68.49;96128.09;5053565;28;1041;-46
2021/12/23 03:56:00;;;;;;;;;;;;;;;-8.99;69.20;96135.75;5053484;28;1053;-46
2021/12/23 03:58:26;;;;;;;;;;;;;;;-9.16;70.84;96133.38;5053606;28;977;-45
2021/12/23 04:00:52;;;;;;;;;;;;;;;-8.87;71.17;96133.84;5053235;28;1910;-46
2021/12/23 04:03:18;;;;;;;;;;;;;;;-8.60;70.57;96141.28;5053184;28;1089;-46
2021/12/23 04:05:45;;;;;;;;;;;;;;;-8.55;69.26;96139.50;5053532;28;979;-46
2021/12/23 04:08:11;;;;;;;;;;;;;;;-8.87;69.46;96133.84;5053061;28;1038;-46
2021/12/23 04:10:37;;;;;;;;;;;;;;;-9.13;70.12;96146.28;5053249;28;1199;-45
2021/12/23 04:13:03;;;;;;;;;;;;;;;-9.16;70.25;96149.78;5013959;28;1186;-45
2021/12/23 04:15:29;;;;;;;;;;;;;;;-8.91;71.15;96150.34;5013845;28;1014;-46
2021/12/23 04:17:55;;;;;;;;;;;;;;;-8.86;70.17;96151.13;5013703;28;1010;-46
2021/12/23 04:20:23;;;;;;;;;;;;;;;-8.80;70.50;96150.19;5013448;28;1918;-46
2021/12/23 04:22:51;;;;;;;;;;;;;;;-8.71;70.15;96155.22;5013213;28;1120;-46
2021/12/23 04:25:19;;;;;;;;;;;;;;;-8.90;69.90;96144.25;5013520;28;1037;-46
2021/12/23 04:27:47;;;;;;;;;;;;;;;-8.96;70.76;96149.53;5013286;28;1204;-45
2021/12/23 04:30:13;;;;;;;;;;;;;;;-8.77;70.60;96151.88;5013536;28;1122;-47
2021/12/23 04:32:40;;;;;;;;;;;;;;;-8.77;70.08;96154.47;5013393;28;1034;-46
2021/12/23 04:35:06;;;;;;;;;;;;;;;-8.86;69.26;96155.44;5013276;28;942;-46
2021/12/23 04:37:32;;;;;;;;;;;;;;;-9.00;70.73;96137.50;5013317;28;931;-46
2021/12/23 04:39:58;;;;;;;;;;;;;;;-8.90;71.28;96146.00;5015729;28;1934;-46
2021/12/23 04:42:24;;;;;;;;;;;;;;;-8.84;69.45;96149.38;5017533;28;1045;-46
2021/12/23 04:44:50;;;;;;;;;;;;;;;-9.07;69.36;96139.31;5017150;28;990;-46
2021/12/23 04:47:16;;;;;;;;;;;;;;;-9.38;70.13;96143.97;5017610;28;1046;-46
2021/12/23 04:49:42;;;;;;;;;;;;;;;-9.45;70.64;96142.34;5017319;28;1049;-46
2021/12/23 04:52:08;;;;;;;;;;;;;;;-9.25;71.28;96148.16;5017421;28;1053;-46
2021/12/23 04:54:34;;;;;;;;;;;;;;;-9.27;70.62;96155.09;5017002;28;1907;-46
2021/12/23 04:57:00;;;;;;;;;;;;;;;-9.26;71.29;96158.53;5017039;28;1046;-46
2021/12/23 04:59:26;;;;;;;;;;;;;;;-9.05;71.55;96158.28;5016922;28;982;-50
2021/12/23 05:01:52;;;;;;;;;;;;;;;-9.00;70.28;96155.63;5017145;28;1934;-46
2021/12/23 05:04:18;;;;;;;;;;;;;;;-9.25;70.24;96155.91;5017036;28;1107;-45
2021/12/23 05:06:44;;;;;;;;;;;;;;;-9.40;69.72;96156.09;5015767;28;1105;-46
2021/12/23 05:09:10;;;;;;;;;;;;;;;-9.62;70.10;96155.44;5016630;28;1278;-46
2021/12/23 05:11:36;;;;;;;;;;;;;;;-9.55;71.43;96161.44;5032497;28;1155;-46
2021/12/23 05:14:01;;;;;;;;;;;;;;;-9.33;71.12;96156.88;5056261;28;978;-46
2021/12/23 05:16:27;;;;;;;;;;;;;;;-9.38;70.31;96162.13;5056409;28;1074;-46
2021/12/23 05:18:53;;;;;;;;;;;;;;;-9.49;70.69;96156.19;5056202;28;1049;-46
2021/12/23 05:21:19;;;;;;;;;;;;;;;-9.34;70.85;96155.16;5056283;28;1989;-46
2021/12/23 05:23:45;;;;;;;;;;;;;;;-9.10;70.72;96148.84;5055940;28;1037;-46
2021/12/23 05:26:11;;;;;;;;;;;;;;;-9.03;69.75;96147.88;5056609;28;963;-46
2021/12/23 05:28:37;;;;;;;;;;;;;;;-9.09;69.21;96151.41;5056445;28;1030;-46
2021/12/23 05:31:04;;;;;;;;;;;;;;;-9.34;69.16;96153.44;5055938;28;1312;-46
2021/12/23 05:33:30;;;;;;;;;;;;;;;-9.34;68.90;96152.59;5056105;28;1307;-45
2021/12/23 05:35:56;;;;;;;;;;;;;;;-9.40;70.08;96157.84;5055889;28;1054;-46
2021/12/23 05:38:23;;;;;;;;;;;;;;;-9.44;69.65;96154.41;5055983;28;1046;-46
2021/12/23 05:40:49;;;;;;;;;;;;;;;-9.63;70.58;96148.56;5056174;28;1997;-46
2021/12/23 05:43:14;;;;;;;;;;;;;;;-9.53;70.94;96152.78;5056562;28;1002;-46
2021/12/23 05:45:40;;;;;;;;;;;;;;;-9.30;71.11;96162.88;5055982;28;1092;-45
2021/12/23 05:48:06;;;;;;;;;;;;;;;-9.16;70.54;96157.56;5055805;28;1034;-46
2021/12/23 05:50:32;;;;;;;;;;;;;;;-9.05;69.42;96160.00;5055216;28;1052;-46
2021/12/23 05:52:58;;;;;;;;;;;;;;;-9.17;68.33;96152.38;5055709;28;1097;-46
2021/12/23 05:55:24;;;;;;;;;;;;;;;-9.51;69.31;96163.13;5055892;28;1012;-46
2021/12/23 05:57:50;;;;;;;;;;;;;;;-9.71;70.16;96155.53;5055962;28;1045;-46
2021/12/23 06:00:21;;;;;;;;;;;;;;;-9.69;70.60;96159.00;5055339;28;1910;-45
2021/12/23 06:02:48;;;;;;;;;;;;;;;-9.42;71.02;96163.88;5055509;28;1014;-46
2021/12/23 06:05:14;;;;;;;;;;;;;;;-9.10;71.05;96159.22;5055405;28;1034;-45
2021/12/23 06:07:41;;;;;;;;;;;;;;;-9.03;70.32;96158.25;5037706;28;1014;-46
2021/12/23 06:10:07;;;;;;;;;;;;;;;-9.20;69.51;96163.63;5055504;28;1009;-46
2021/12/23 06:12:33;;;;;;;;;;;;;;;-9.15;68.53;96169.63;5023812;28;1150;-46
2021/12/23 06:14:59;;;;;;;;;;;;;;;-9.46;68.97;96174.31;5015794;28;1029;-45
2021/12/23 06:17:26;;;;;;;;;;;;;;;-9.46;69.91;96182.91;5015642;28;1113;-46
2021/12/23 06:19:52;;;;;;;;;;;;;;;-9.42;69.48;96176.81;5015355;28;1987;-46
2021/12/23 06:22:18;;;;;;;;;;;;;;;-9.46;69.96;96171.72;5015457;28;1103;-46
2021/12/23 06:24:47;;;;;;;;;;;;;;;-9.45;69.75;96176.00;5015321;28;1108;-46
2021/12/23 06:27:13;;;;;;;;;;;;;;;-9.38;70.04;96172.47;5015746;28;1017;-46
2021/12/23 06:29:39;;;;;;;;;;;;;;;-9.13;70.48;96175.63;5015520;28;1049;-46
2021/12/23 06:32:05;;;;;;;;;;;;;;;-8.94;69.14;96175.44;5015218;28;1103;-45
2021/12/23 06:34:32;;;;;;;;;;;;;;;-8.93;68.19;96170.22;5015203;28;1113;-46
2021/12/23 06:37:00;;;;;;;;;;;;;;;-8.40;67.92;96172.06;5015214;28;1029;-46
2021/12/23 06:39:28;;;;;;;;;;;;;;;-3.80;55.89;96177.91;5015120;28;1136;-47
2021/12/23 06:42:14;;;;;;;;;;;;;;;0.22;44.63;96169.84;5015538;28;2134;-46
2021/12/23 06:44:55;;;;;;;;;;;;;;;1.20;41.24;96173.81;5015009;28;1062;-46
2021/12/23 06:47:22;;;;;;;;;;;;;;;3.02;37.13;96183.22;5015044;28;1042;-46
2021/12/23 06:49:50;;;;;;;;;;;;;;;4.68;34.20;96183.53;5014846;28;974;-47
2021/12/23 06:52:21;;;;;;;;;;;;;;;6.02;32.47;96186.03;5014888;28;990;-46
2021/12/23 06:54:57;;;;;;;;;;;;;;;6.88;30.52;96181.63;5014727;28;1070;-47
2021/12/23 06:57:33;;;;;;;;;;;;;;;7.74;29.24;96187.59;5015200;28;982;-47
2021/12/23 07:00:09;;;;;;;;;;;;;;;9.24;27.91;96181.91;5014539;28;1910;-46
2021/12/23 07:02:40;;;;;;;;;;;;;;;10.04;26.52;96185.84;5013849;28;966;-46
2021/12/23 07:05:14;;;;;;;;;;;;;;;11.09;25.34;96194.38;5014908;28;974;-46
2021/12/23 07:07:51;;;;;;;;;;;;;;;11.03;24.87;96186.06;5014821;28;1032;-46
2021/12/23 07:10:18;;;;;;;;;;;;;;;9.08;26.48;96179.66;5014629;28;1066;-46
2021/12/23 07:12:58;;;;;;;;;;;;;;;5.88;30.47;96175.50;5052845;28;1217;-45
2021/12/23 07:15:43;;;;;;;;;;;;;;;2.09;38.24;96177.00;5054318;28;2092;-44
2021/12/23 07:18:29;;;;;;;;;;;;;;;-0.86;44.30;96174.72;5054521;28;2148;-46
2021/12/23 07:20:57;;;;;;;;;;;;;;;-2.38;49.19;96178.25;5053874;28;1906;-47
2021/12/23 07:23:43;;;;;;;;;;;;;;;-3.78;53.93;96152.56;5054248;28;1990;-46
2021/12/23 07:26:09;;;;;;;;;;;;;;;-4.39;57.19;96176.22;5053868;28;1081;-46
2021/12/23 07:28:36;;;;;;;;;;;;;;;-4.84;60.23;96181.03;5053963;28;1101;-46
2021/12/23 07:31:13;;;;;;;;;;;;;;;-5.02;61.60;96175.44;5053811;28;1340;-47
2021/12/23 07:33:59;;;;;;;;;;;;;;;-4.99;62.13;96184.91;5053862;28;2107;-46
2021/12/23 07:36:44;;;;;;;;;;;;;;;-5.00;62.63;96178.84;5053578;28;2394;-46
2021/12/23 07:39:18;;;;;;;;;;;;;;;-5.00;62.83;96172.78;5053862;28;1112;-45
2021/12/23 07:42:01;;;;;;;;;;;;;;;-4.82;62.40;96185.28;5053598;28;1910;-46
2021/12/23 07:44:27;;;;;;;;;;;;;;;-4.72;62.40;96185.91;5053970;28;1311;-46
2021/12/23 07:46:53;;;;;;;;;;;;;;;-4.68;61.82;96184.94;5053370;28;996;-45
2021/12/23 07:49:19;;;;;;;;;;;;;;;-4.65;62.10;96182.22;5053640;28;1085;-46
2021/12/23 07:51:45;;;;;;;;;;;;;;;-4.74;63.29;96187.72;5053618;28;969;-46
2021/12/23 07:54:11;;;;;;;;;;;;;;;-4.67;62.70;96193.59;5053701;28;1065;-46
2021/12/23 07:56:37;;;;;;;;;;;;;;;-4.74;61.94;96185.09;5053630;28;1013;-46
2021/12/23 07:59:03;;;;;;;;;;;;;;;-4.77;63.76;96195.63;5053695;28;1041;-46
2021/12/23 08:01:29;;;;;;;;;;;;;;;-4.83;64.04;96193.19;5053460;28;1993;-45
2021/12/23 08:03:55;;;;;;;;;;;;;;;-4.68;63.56;96199.72;5053354;28;1116;-46
2021/12/23 08:06:21;;;;;;;;;;;;;;;-4.69;63.47;96191.03;5053096;28;1038;-46
2021/12/23 08:08:47;;;;;;;;;;;;;;;-4.80;63.09;96183.53;5053405;28;1001;-45
2021/12/23 08:11:13;;;;;;;;;;;;;;;-4.75;64.23;96184.22;5044025;28;1234;-45
2021/12/23 08:13:39;;;;;;;;;;;;;;;-4.65;63.62;96184.81;5013456;28;985;-47
2021/12/23 08:16:05;;;;;;;;;;;;;;;-4.68;63.58;96179.72;5013799;28;1053;-47
2021/12/23 08:18:32;;;;;;;;;;;;;;;-4.68;63.47;96186.69;5013628;28;1209;-45
2021/12/23 08:20:58;;;;;;;;;;;;;;;-4.50;62.64;96183.53;5013334;28;1950;-46
2021/12/23 08:23:24;;;;;;;;;;;;;;;-4.62;62.99;96189.97;5013684;28;1010;-46
2021/12/23 08:25:50;;;;;;;;;;;;;;;-4.52;63.03;96190.53;5013569;28;1049;-46
2021/12/23 08:28:16;;;;;;;;;;;;;;;-4.29;63.97;96181.19;5013387;28;958;-46
2021/12/23 08:34:04;;;;;;;;;;;;;;;-4.19;63.55;96183.47;3672278;28;2467;-46
2021/12/23 08:36:30;;;;;;;;;;;;;;;-4.15;62.74;96179.88;5013563;28;1037;-45
2021/12/23 08:38:58;;;;;;;;;;;;;;;-4.17;62.38;96180.84;5013359;28;1054;-45
2021/12/23 08:41:24;;;;;;;;;;;;;;;-4.18;62.31;96179.09;5013324;28;1997;-45
2021/12/23 08:43:51;;;;;;;;;;;;;;;-4.18;62.94;96172.13;5013356;28;943;-45
2021/12/23 08:46:17;;;;;;;;;;;;;;;-4.02;62.07;96179.47;5013594;28;978;-46
2021/12/23 08:48:43;;;;;;;;;;;;;;;-4.04;63.38;96165.59;5013386;28;1037;-45
2021/12/23 08:51:09;;;;;;;;;;;;;;;-3.85;62.54;96174.59;5013228;28;1031;-45
2021/12/23 08:53:35;;;;;;;;;;;;;;;-3.58;62.46;96169.38;5012988;28;1891;-46
2021/12/23 08:56:02;;;;;;;;;;;;;;;-3.44;61.67;96164.53;5013401;28;1054;-46
2021/12/23 08:58:28;;;;;;;;;;;;;;;-3.45;61.86;96159.34;5013305;28;1025;-45
2021/12/23 09:00:54;;;;;;;;;;;;;;;-3.39;61.37;96157.38;5013181;28;1993;-45
2021/12/23 09:03:20;;;;;;;;;;;;;;;-3.30;62.32;96142.28;5012967;28;1011;-45
2021/12/23 09:05:46;;;;;;;;;;;;;;;-3.33;61.51;96143.25;5013280;28;1034;-45
2021/12/23 09:08:12;;;;;;;;;;;;;;;-3.14;62.12;96138.25;5013209;28;971;-45
2021/12/23 09:10:38;;;;;;;;;;;;;;;-2.68;60.07;96127.88;5013126;28;1101;-46
2021/12/23 09:13:04;;;;;;;;;;;;;;;-1.47;56.22;96120.47;4993239;28;1998;-45
2021/12/23 09:15:30;;;;;;;;;;;;;;;0.22;52.53;96117.22;4993497;28;1208;-46
2021/12/23 09:17:56;;;;;;;;;;;;;;;0.54;50.79;96114.81;4993552;28;1034;-46
2021/12/23 09:20:22;;;;;;;;;;;;;;;1.75;48.31;96108.47;4993545;28;1915;-45
2021/12/23 09:22:49;;;;;;;;;;;;;;;3.84;43.20;96103.28;4993127;28;1206;-46
2021/12/23 09:25:30;;;;;;;;;;;;;;;6.40;37.67;96097.44;4993632;28;967;-46
2021/12/23 09:33:22;;;;;;;;;;;;;;;12.96;26.00;96094.53;4999814;28;1130;-46
2021/12/23 09:35:48;;;;;;;;;;;;;;;13.51;25.48;96093.53;5016533;28;982;-44
2021/12/23 09:38:15;;;;;;;;;;;;;;;13.62;25.16;96082.53;5016240;28;1894;-44
2021/12/23 09:40:42;;;;;;;;;;;;;;;13.15;25.99;96085.50;5016275;28;1906;-44
2021/12/23 09:43:10;;;;;;;;;;;;;;;12.03;26.81;96075.88;5016054;28;1094;-43
2021/12/23 09:45:37;;;;;;;;;;;;;;;11.82;27.28;96070.72;5016558;28;1033;-44
2021/12/23 09:48:04;;;;;;;;;;;;;;;12.88;26.43;96078.34;5016197;28;978;-44
2021/12/23 09:50:32;;;;;;;;;;;;;;;14.45;23.45;96075.75;5016340;28;1002;-45
2021/12/23 09:52:59;;;;;;;;;;;;;;;16.26;22.53;96073.13;5016339;28;982;-47
2021/12/23 09:55:26;;;;;;;;;;;;;;;16.80;21.64;96067.84;5015966;28;1205;-45
2021/12/23 09:57:53;;;;;;;;;;;;;;;16.74;20.94;96060.44;5016038;28;982;-46
2021/12/23 10:00:21;;;;;;;;;;;;;;;17.10;20.25;96068.84;5015982;28;1989;-46
2021/12/23 10:02:47;;;;;;;;;;;;;;;17.67;19.94;96061.31;5016080;28;1061;-46
2021/12/23 10:05:15;;;;;;;;;;;;;;;17.98;20.17;96049.56;5015900;28;1048;-46
2021/12/23 10:07:43;;;;;;;;;;;;;;;17.36;20.07;96048.75;5016140;28;1034;-46
2021/12/23 10:10:18;;;;;;;;;;;;;;;15.37;21.47;96036.22;5015752;28;986;-45
2021/12/23 10:38:18;;;;;;;;;;;;;;;17.15;20.56;96004.31;5054978;28;970;-46
2021/12/23 10:40:45;;;;;;;;;;;;;;;18.22;19.65;95997.03;5054707;28;2003;-46
2021/12/23 10:43:31;;;;;;;;;;;;;;;18.53;19.43;96000.34;5054883;28;1102;-46
2021/12/23 10:46:00;;;;;;;;;;;;;;;18.43;19.22;95990.81;5054612;28;1074;-45
2021/12/23 10:48:29;;;;;;;;;;;;;;;18.85;18.97;95989.25;5054739;28;1085;-45
2021/12/23 10:51:03;;;;;;;;;;;;;;;18.94;18.66;95979.97;5054453;28;1034;-45
2021/12/23 10:59:09;;;;;;;;;;;;;;;16.75;20.42;95976.56;5054480;28;1161;-45
2021/12/23 11:01:40;;;;;;;;;;;;;;;14.30;22.68;95969.75;5054815;28;1989;-44
2021/12/23 11:04:07;;;;;;;;;;;;;;;12.03;25.50;95959.78;5054321;28;1046;-43
2021/12/23 11:06:42;;;;;;;;;;;;;;;8.73;29.72;95960.28;5054638;28;1025;-44
2021/12/23 11:09:22;;;;;;;;;;;;;;;6.98;32.63;95940.69;5054437;28;1002;-44
2021/12/23 11:44:39;;;;;;;;;;;;;;;3.25;42.03;95884.00;5005273;28;1872;-45
2021/12/23 11:47:14;;;;;;;;;;;;;;;3.20;41.35;95880.81;5013976;28;1042;-45
2021/12/23 11:49:43;;;;;;;;;;;;;;;3.12;42.23;95872.53;5013245;28;1045;-45
2021/12/23 11:52:10;;;;;;;;;;;;;;;2.74;42.34;95874.00;5013959;28;1037;-45
2021/12/23 11:54:37;;;;;;;;;;;;;;;2.82;42.50;95873.50;5014139;28;1050;-45
2021/12/23 11:57:03;;;;;;;;;;;;;;;2.81;44.00;95869.19;5014023;28;958;-45
2021/12/23 11:59:31;;;;;;;;;;;;;;;2.76;43.30;95863.34;5013883;28;1130;-45
2021/12/23 12:01:57;;;;;;;;;;;;;;;2.48;43.59;95851.84;5013477;28;1907;-45
2021/12/23 12:04:26;;;;;;;;;;;;;;;2.59;43.69;95864.38;5014304;28;978;-45
2021/12/23 12:06:53;;;;;;;;;;;;;;;2.62;42.96;95856.28;5013756;28;1047;-45
2021/12/23 12:09:23;;;;;;;;;;;;;;;2.70;42.91;95848.72;5013929;28;1221;-45
2021/12/23 12:12:03;;;;;;;;;;;;;;;2.85;44.09;95848.72;5032500;28;1997;-45
2021/12/23 12:14:35;;;;;;;;;;;;;;;2.79;44.15;95844.66;5053239;28;1254;-45
2021/12/23 12:17:20;;;;;;;;;;;;;;;2.86;43.52;95837.19;5053197;28;1045;-46
2021/12/23 12:20:04;;;;;;;;;;;;;;;2.69;43.62;95828.56;5053420;28;994;-46
2021/12/23 12:22:51;;;;;;;;;;;;;;;2.37;44.22;95827.91;5053341;28;1007;-46
2021/12/23 12:25:23;;;;;;;;;;;;;;;2.48;44.83;95825.44;5053569;28;978;-47
2021/12/23 12:27:55;;;;;;;;;;;;;;;2.41;44.13;95818.88;5053402;28;1066;-45
2021/12/23 12:30:40;;;;;;;;;;;;;;;2.53;45.22;95812.81;5053124;28;1065;-45
2021/12/23 12:33:29;;;;;;;;;;;;;;;2.70;45.03;95810.91;5052721;28;1104;-47
2021/12/23 12:35:58;;;;;;;;;;;;;;;2.72;45.00;95816.94;5052382;28;2139;-45
2021/12/23 12:38:26;;;;;;;;;;;;;;;2.61;44.58;95808.84;5053217;28;986;-46
2021/12/23 12:40:55;;;;;;;;;;;;;;;2.29;45.72;95809.91;5052764;28;1902;-46
2021/12/23 12:43:41;;;;;;;;;;;;;;;2.22;46.90;95802.44;5053074;28;1017;-46
2021/12/23 12:46:09;;;;;;;;;;;;;;;2.42;46.50;95798.59;5052751;28;1197;-45
2021/12/23 12:48:53;;;;;;;;;;;;;;;2.54;46.04;95798.69;5052822;28;1026;-47
2021/12/23 12:51:20;;;;;;;;;;;;;;;2.53;46.01;95796.97;5052999;28;1025;-45
2021/12/23 12:53:50;;;;;;;;;;;;;;;2.51;45.76;95793.59;5052808;28;1042;-46
2021/12/23 12:56:23;;;;;;;;;;;;;;;2.54;46.28;95803.97;5052623;28;1101;-46
2021/12/23 12:58:53;;;;;;;;;;;;;;;2.55;46.93;95799.53;5052756;28;1023;-45
2021/12/23 13:01:33;;;;;;;;;;;;;;;2.43;47.79;95798.50;5055710;28;1910;-45
2021/12/23 13:04:00;;;;;;;;;;;;;;;2.37;47.12;95793.59;5056743;28;994;-46
2021/12/23 13:06:36;;;;;;;;;;;;;;;2.29;48.37;95794.06;5056864;28;966;-45
2021/12/23 13:09:03;;;;;;;;;;;;;;;2.19;48.43;95792.94;5056677;28;1892;-45
2021/12/23 13:11:29;;;;;;;;;;;;;;;2.15;47.88;95796.72;5042838;28;1210;-45
2021/12/23 13:14:04;;;;;;;;;;;;;;;2.18;48.19;95796.50;5017027;28;1002;-45
2021/12/23 13:16:31;;;;;;;;;;;;;;;2.19;47.86;95792.09;5016723;28;978;-45
2021/12/23 13:19:16;;;;;;;;;;;;;;;2.14;47.61;95790.59;5017061;28;998;-45
2021/12/23 13:21:43;;;;;;;;;;;;;;;2.08;47.91;95790.97;5016527;28;1910;-45
2021/12/23 13:24:10;;;;;;;;;;;;;;;2.04;48.16;95797.38;5016886;28;982;-45
2021/12/23 13:26:37;;;;;;;;;;;;;;;2.11;47.99;95784.66;5016510;28;1085;-46
2021/12/23 13:29:05;;;;;;;;;;;;;;;2.14;48.20;95790.59;5015731;28;1046;-46
2021/12/23 13:31:35;;;;;;;;;;;;;;;2.15;48.68;95788.81;5016642;28;962;-45
2021/12/23 13:34:03;;;;;;;;;;;;;;;2.13;48.59;95791.53;5016260;28;1098;-47
2021/12/23 13:36:38;;;;;;;;;;;;;;;2.09;49.35;95789.19;5016295;28;1034;-46
2021/12/23 13:39:06;;;;;;;;;;;;;;;2.01;49.18;95787.03;5016556;28;1030;-47
2021/12/23 13:41:39;;;;;;;;;;;;;;;1.92;48.48;95790.22;5016192;28;1954;-46
2021/12/23 13:44:14;;;;;;;;;;;;;;;1.84;48.70;95785.41;5016384;28;1090;-45
2021/12/23 13:46:42;;;;;;;;;;;;;;;1.92;48.96;95784.94;5016304;28;1030;-46
2021/12/23 13:49:09;;;;;;;;;;;;;;;1.95;48.73;95788.25;5016496;28;993;-45
2021/12/23 13:51:39;;;;;;;;;;;;;;;1.88;49.15;95786.06;5016173;28;1032;-45
2021/12/23 13:54:07;;;;;;;;;;;;;;;1.71;49.83;95790.56;5016582;28;1056;-46
2021/12/23 13:56:34;;;;;;;;;;;;;;;1.73;49.46;95791.31;5015949;28;1216;-46
2021/12/23 13:59:12;;;;;;;;;;;;;;;1.84;49.12;95788.03;5015967;28;1001;-47
2021/12/23 14:02:05;;;;;;;;;;;;;;;1.87;49.84;95777.28;5015964;28;1910;-45
2021/12/23 14:04:33;;;;;;;;;;;;;;;1.64;50.90;95775.19;5014656;28;2000;-45
2021/12/23 14:06:59;;;;;;;;;;;;;;;1.45;51.12;95771.00;5015945;28;1030;-46
2021/12/23 14:09:37;;;;;;;;;;;;;;;1.22;51.62;95766.25;5016023;28;1045;-45
2021/12/23 14:12:04;;;;;;;;;;;;;;;0.88;53.15;95769.03;5037971;28;1171;-46
2021/12/23 14:14:31;;;;;;;;;;;;;;;0.76;53.52;95767.09;5055764;28;1297;-46
2021/12/23 14:16:57;;;;;;;;;;;;;;;0.71;54.06;95769.13;5055415;28;1024;-46
2021/12/23 14:19:47;;;;;;;;;;;;;;;0.78;53.00;95763.44;5055653;28;978;-46
2021/12/23 14:24:56;;;;;;;;;;;;;;;0.67;54.87;95768.44;5055207;28;1267;-46
2021/12/23 14:27:22;;;;;;;;;;;;;;;0.61;54.69;95767.94;5055381;28;982;-46
2021/12/23 14:29:59;;;;;;;;;;;;;;;0.67;54.23;95765.81;5055098;28;1879;-47
2021/12/23 14:32:25;;;;;;;;;;;;;;;0.61;54.73;95762.66;5055142;28;959;-45
2021/12/23 14:34:51;;;;;;;;;;;;;;;0.55;55.33;95771.75;5054940;28;1201;-46